Aérodrome :
LOGIN :

S'inscrire | Disclaimer

   EN    FR    IT 

 










Légende :    VFR   VFR Marginal   IFR   IFR Intensif   IFR Très Intensif
Visi : 
Plafond : 
>= 8 km
>= 3000ft
5 à 8 km
1000 à 3000 ft
1500m à 5 km
500 à 1000 ft
800 à 1500m
200 à 500 ft
< 800m
< 200 ft
Symboles :   Orages  Brouillard  Fortes neiges  Fortes précipitations  Vent > 20 kt
SIGMETs :   Divers  Orages  Givrage  Turbulence  Onde Orograph.  Cendres Volcan.






- Altitude de l'aérodrome : 465 ft
- Code IATA : OMR


LROD - Oradea International

DERNIER METAR :
  • 120030Z AUTO 07004KT 3600 BR NCD 02/02 Q1012

METARs EXPIRÉS :
  • 120000Z AUTO 09006KT 3700 BR NCD 02/01 Q1013
  • 112330Z AUTO 11006KT 4300 BR NCD 02/01 Q1013
  • 112300Z AUTO 11004KT 5000 BR FEW047/// 02/01 Q1013
  • 112230Z AUTO 10004KT 6000 BKN043/// BKN050/// 03/02 Q1014
  • 112200Z AUTO 11003KT 6000 OVC041/// 04/03 Q1014

TAF TAF LROD
Valide du 11 à 18h jusqu'au 12 à 03h UTC


111700Z 1118/1203 VRB03KT 9999 OVC015
BECMG 1121/1123 3000 BR OVC010
TEMPO 1201/1203 0800 FZFG OVC002



MET'MAP, la Météo Aéronautique d'un coup d'oeil ! - Copyright ORBIFLY Décembre 2007 - Disclaimer

ORBIFLY MET'MAP TEAM :

Programmation & Développement : Alexandra Zaïnal
Sur une idée originale de : Baudouin d'Aumeries
Assistance à la programmation : Marc-Olivier Méhu
Soutien technique & logistique : Manuel Goepfert

Contact : metmap@orbifly.com




SOURCES & CREDITS :

   NOAA